Time;durP1;ratioP1;P1;durP2;ratioP2;P2;SDS_P1;SDS_P2;PMS_P1;PMS_P2;Temp;Humidity;BMP_temperature;BMP_pressure;BME280_temperature;BME280_humidity;BME280_pressure;Samples;Min_cycle;Max_cycle;Signal;HPM_P1;HPM_P2
2021/04/26 00:00:12;;;;;;;6.77;1.67;;;;;;;11.70;35.97;102002.56;5114675;28;20458;-52
2021/04/26 00:02:40;;;;;;;7.50;2.13;;;;;;;11.73;35.26;101998.44;5116403;28;20527;-50
2021/04/26 00:05:08;;;;;;;7.60;2.83;;;;;;;11.87;35.69;102000.94;5115202;28;20871;-49
2021/04/26 00:07:35;;;;;;;13.87;5.87;;;;;;;11.87;35.68;101990.56;5116309;28;20548;-51
2021/04/26 00:10:02;;;;;;;3.97;1.43;;;;;;;11.63;36.16;101985.78;5104339;28;20527;-47
2021/04/26 00:12:28;;;;;;;10.80;2.60;;;;;;;11.83;35.58;101993.78;5106112;28;20489;-48
2021/04/26 00:15:10;;;;;;;9.20;3.33;;;;;;;11.56;36.28;101994.00;5102490;28;20485;-48
2021/04/26 00:17:37;;;;;;;8.50;1.83;;;;;;;11.44;36.45;101995.06;5104956;28;20520;-50
2021/04/26 00:20:07;;;;;;;9.10;3.03;;;;;;;11.58;35.91;101990.72;5103674;28;20477;-49
2021/04/26 00:22:33;;;;;;;9.90;4.00;;;;;;;11.57;36.33;101982.84;5104854;28;20498;-48
2021/04/26 00:25:00;;;;;;;6.80;2.70;;;;;;;11.43;37.04;101989.84;5109004;28;20451;-49
2021/04/26 00:27:27;;;;;;;6.90;2.10;;;;;;;11.46;36.95;101982.25;5116310;28;20500;-48
2021/04/26 00:29:53;;;;;;;12.90;4.40;;;;;;;11.35;36.93;101989.38;5115223;28;20455;-49
2021/04/26 00:32:20;;;;;;;4.00;1.40;;;;;;;11.35;36.63;101989.38;5116344;28;20941;-50
2021/04/26 00:34:47;;;;;;;8.77;3.13;;;;;;;11.24;37.14;101980.09;5115315;28;20480;-54
2021/04/26 00:37:14;;;;;;;5.93;2.03;;;;;;;11.24;36.95;101980.09;5116893;28;20432;-47
2021/04/26 00:39:41;;;;;;;5.00;1.30;;;;;;;11.25;37.23;101982.78;5115446;28;20456;-48
2021/04/26 00:42:07;;;;;;;6.93;1.27;;;;;;;11.36;36.57;101975.66;5116622;28;20901;-46
2021/04/26 00:44:34;;;;;;;7.23;1.47;;;;;;;11.44;36.79;101979.56;5112200;28;20905;-50
2021/04/26 00:47:01;;;;;;;7.23;1.70;;;;;;;11.21;37.17;101981.72;5106373;28;20560;-49
2021/04/26 00:49:27;;;;;;;7.40;2.30;;;;;;;11.13;37.18;101980.34;5103076;28;20474;-47
2021/04/26 00:51:54;;;;;;;8.03;3.03;;;;;;;11.00;37.60;101978.75;5105890;28;20462;-48
2021/04/26 00:54:21;;;;;;;8.20;2.13;;;;;;;11.17;37.08;101968.50;5105257;28;20444;-47
2021/04/26 00:56:48;;;;;;;4.37;1.27;;;;;;;10.99;37.61;101969.22;5113280;28;20922;-47
2021/04/26 00:59:15;;;;;;;6.50;1.90;;;;;;;10.80;37.41;101967.22;5115301;28;20443;-50
2021/04/26 01:01:41;;;;;;;9.10;3.60;;;;;;;10.63;38.38;101961.06;5115474;28;20572;-48
2021/04/26 01:04:08;;;;;;;9.47;1.97;;;;;;;10.55;38.39;101964.88;5115642;28;20787;-49
2021/04/26 01:06:35;;;;;;;12.23;4.00;;;;;;;10.72;37.94;101965.88;5116180;28;20545;-49
2021/04/26 01:09:02;;;;;;;6.27;1.80;;;;;;;10.60;37.84;101961.75;5115184;28;20432;-48
2021/04/26 01:11:36;;;;;;;7.90;2.90;;;;;;;10.55;38.54;101965.75;5115890;28;20786;-50
2021/04/26 01:14:06;;;;;;;7.87;1.83;;;;;;;10.48;38.51;101953.25;5115250;28;20428;-49
2021/04/26 01:16:36;;;;;;;9.67;3.30;;;;;;;10.88;37.94;101960.81;5116151;28;20455;-50
2021/04/26 01:19:09;;;;;;;6.43;1.70;;;;;;;10.87;37.56;101953.88;5115631;28;20427;-49
2021/04/26 01:22:03;;;;;;;5.60;2.00;;;;;;;11.00;37.35;101952.03;5112967;28;20488;-48
2021/04/26 01:24:53;;;;;;;6.17;1.80;;;;;;;10.85;38.09;101955.50;5112189;28;20894;-48
2021/04/26 01:27:54;;;;;;;5.73;1.90;;;;;;;10.71;37.95;101951.19;5115781;28;20457;-47
2021/04/26 01:30:24;;;;;;;6.60;1.80;;;;;;;10.58;38.10;101954.72;5073858;28;20561;-47
2021/04/26 01:32:56;;;;;;;4.47;1.10;;;;;;;10.63;37.93;101948.16;5113215;28;20992;-48
2021/04/26 01:35:24;;;;;;;4.20;1.23;;;;;;;10.64;37.84;101945.66;5115071;28;20495;-49
2021/04/26 01:37:53;;;;;;;3.37;1.20;;;;;;;10.41;37.89;101944.19;5112071;28;20428;-48
2021/04/26 01:40:22;;;;;;;5.07;1.00;;;;;;;10.41;38.19;101941.63;5114088;28;20928;-47
2021/04/26 01:42:51;;;;;;;3.77;1.20;;;;;;;10.47;38.13;101946.31;5115563;28;20448;-48
2021/04/26 01:45:19;;;;;;;6.80;1.80;;;;;;;10.49;38.18;101944.72;5114849;28;20477;-48
2021/04/26 01:47:47;;;;;;;5.50;1.93;;;;;;;10.38;38.41;101944.94;5115947;28;20741;-47
2021/04/26 01:50:15;;;;;;;5.80;1.70;;;;;;;10.16;38.80;101954.72;5114356;28;20462;-48
2021/04/26 01:52:42;;;;;;;5.67;1.87;;;;;;;10.20;38.80;101946.38;5115517;28;20927;-52
2021/04/26 01:55:11;;;;;;;5.57;1.87;;;;;;;10.23;38.81;101943.97;5114717;28;20458;-49
2021/04/26 01:57:40;;;;;;;7.90;2.10;;;;;;;10.40;38.41;101943.34;5115523;28;20477;-48
2021/04/26 02:00:10;;;;;;;5.40;1.73;;;;;;;10.39;38.29;101944.13;5114161;28;20916;-48
2021/04/26 02:02:37;;;;;;;7.93;2.00;;;;;;;10.36;38.74;101941.34;5115201;28;20479;-49
2021/04/26 02:05:05;;;;;;;5.53;1.27;;;;;;;10.30;39.07;101935.81;5114781;28;20505;-48
2021/04/26 02:07:33;;;;;;;4.53;1.63;;;;;;;10.18;39.07;101937.63;5115491;28;20866;-49
2021/04/26 02:09:59;;;;;;;4.50;1.53;;;;;;;10.11;39.09;101931.22;5106959;28;20832;-48
2021/04/26 02:12:26;;;;;;;7.90;1.70;;;;;;;10.04;39.31;101941.94;5106033;28;20460;-49
2021/04/26 02:14:53;;;;;;;61.70;25.80;;;;;;;9.85;41.71;101931.34;5106795;28;20484;-52
2021/04/26 02:17:20;;;;;;;14.67;4.60;;;;;;;10.01;39.84;101932.34;5109523;28;20427;-49
2021/04/26 02:19:47;;;;;;;40.73;16.90;;;;;;;9.27;43.05;101937.09;5108037;28;20837;-47
2021/04/26 02:22:14;;;;;;;31.00;14.13;;;;;;;8.95;43.76;101933.28;5107549;28;20474;-48
2021/04/26 02:24:41;;;;;;;23.40;8.20;;;;;;;9.25;42.28;101927.47;5108155;28;20448;-48
2021/04/26 02:27:08;;;;;;;11.50;4.40;;;;;;;9.15;41.89;101921.75;5109038;28;20871;-49
2021/04/26 02:29:34;;;;;;;7.57;2.70;;;;;;;9.09;41.77;101930.72;5105697;28;20928;-48
2021/04/26 02:32:06;;;;;;;7.07;2.60;;;;;;;9.23;41.15;101919.66;5109836;28;20473;-48
2021/04/26 02:34:35;;;;;;;7.60;2.67;;;;;;;9.55;40.66;101918.28;5106480;28;20745;-48
2021/04/26 02:37:05;;;;;;;7.50;1.67;;;;;;;9.47;40.54;101923.75;5108668;28;20965;-49
2021/04/26 02:39:32;;;;;;;6.37;2.40;;;;;;;9.18;42.31;101931.34;5108055;28;20440;-49
2021/04/26 02:42:02;;;;;;;20.47;6.47;;;;;;;9.19;41.84;101921.13;5107485;28;20452;-49
2021/04/26 02:44:30;;;;;;;5.70;1.57;;;;;;;9.47;40.41;101924.63;5106293;28;20468;-50
2021/04/26 02:47:02;;;;;;;5.07;1.67;;;;;;;9.72;39.88;101921.97;5109420;28;20539;-47
2021/04/26 02:49:29;;;;;;;7.77;2.60;;;;;;;9.31;41.12;101922.72;5107819;28;20440;-46
2021/04/26 02:51:56;;;;;;;9.43;2.77;;;;;;;9.13;41.96;101927.56;5106664;28;20441;-47
2021/04/26 02:54:24;;;;;;;9.50;2.37;;;;;;;9.39;40.88;101931.84;5107242;28;20915;-49
2021/04/26 02:56:51;;;;;;;6.07;2.20;;;;;;;9.18;41.49;101921.94;5108628;28;20458;-48
2021/04/26 02:59:20;;;;;;;6.93;2.90;;;;;;;9.30;41.17;101926.09;5105983;28;20462;-49
2021/04/26 03:01:48;;;;;;;13.27;4.20;;;;;;;9.09;42.09;101931.63;5107381;28;20472;-47
2021/04/26 03:04:16;;;;;;;5.90;2.03;;;;;;;8.74;43.32;101923.31;5108061;28;20452;-48
2021/04/26 03:06:43;;;;;;;9.30;3.37;;;;;;;9.14;41.49;101919.06;5107353;28;20545;-47
2021/04/26 03:09:11;;;;;;;8.53;3.03;;;;;;;9.66;39.60;101915.50;5106505;28;20430;-49
2021/04/26 03:11:38;;;;;;;16.40;6.60;;;;;;;9.07;42.03;101911.72;5106111;28;20921;-51
2021/04/26 03:14:05;;;;;;;20.20;7.70;;;;;;;8.95;42.08;101916.91;5106769;28;20480;-47
2021/04/26 03:16:32;;;;;;;9.83;3.17;;;;;;;9.27;40.72;101916.50;5108519;28;20448;-48
2021/04/26 03:18:59;;;;;;;5.00;1.67;;;;;;;9.45;39.40;101919.38;5106883;28;20429;-50
2021/04/26 03:21:26;;;;;;;6.63;2.10;;;;;;;9.31;40.47;101908.19;5108855;28;20886;-49
2021/04/26 03:23:55;;;;;;;3.90;1.40;;;;;;;9.53;39.27;101904.41;5107889;28;20432;-47
2021/04/26 03:26:22;;;;;;;6.23;2.73;;;;;;;9.21;40.90;101904.88;5103033;28;20484;-49
2021/04/26 03:28:49;;;;;;;10.30;2.70;;;;;;;8.81;41.57;101906.59;5105078;28;20555;-50
2021/04/26 03:31:15;;;;;;;6.43;2.07;;;;;;;8.72;40.92;101904.28;5104813;28;20542;-48
2021/04/26 03:33:44;;;;;;;5.47;2.67;;;;;;;9.21;39.81;101898.06;5104911;28;20470;-48
2021/04/26 03:36:12;;;;;;;10.07;3.63;;;;;;;9.76;38.14;101888.63;5103336;28;20457;-49
2021/04/26 03:38:39;;;;;;;7.77;1.80;;;;;;;9.88;37.74;101894.56;5104442;28;20480;-50
2021/04/26 03:41:07;;;;;;;5.23;1.37;;;;;;;10.04;38.13;101896.41;5104927;28;20479;-46
2021/04/26 03:43:33;;;;;;;16.00;5.67;;;;;;;9.93;37.74;101902.56;5108348;28;20460;-50
2021/04/26 03:46:00;;;;;;;6.87;2.70;;;;;;;10.04;37.99;101893.84;5105036;28;21016;-48
2021/04/26 03:48:27;;;;;;;5.13;1.73;;;;;;;9.83;38.26;101898.53;5107439;28;20539;-46
2021/04/26 03:50:55;;;;;;;6.37;1.80;;;;;;;9.69;38.57;101901.13;5106197;28;20451;-47
2021/04/26 03:53:21;;;;;;;4.97;1.73;;;;;;;9.51;39.17;101900.84;5106227;28;20757;-49
2021/04/26 03:55:48;;;;;;;8.87;3.33;;;;;;;9.38;39.36;101893.13;5105469;28;20436;-49
2021/04/26 03:58:14;;;;;;;9.47;4.60;;;;;;;9.43;39.69;101890.03;5108125;28;20449;-48
2021/04/26 04:00:41;;;;;;;14.77;3.70;;;;;;;9.56;39.45;101889.16;5104669;28;20771;-50
2021/04/26 04:03:09;;;;;;;11.90;5.10;;;;;;;9.56;39.86;101889.16;5106490;28;20456;-48
2021/04/26 04:05:37;;;;;;;8.57;2.93;;;;;;;9.52;39.61;101891.41;5106885;28;20886;-47
2021/04/26 04:08:05;;;;;;;9.53;1.77;;;;;;;9.30;40.09;101895.19;5106730;28;20545;-54
2021/04/26 04:10:32;;;;;;;13.60;2.87;;;;;;;9.18;40.42;101885.00;5104207;28;20563;-47
2021/04/26 04:12:59;;;;;;;11.23;4.77;;;;;;;9.37;40.54;101891.31;5105534;28;20488;-50
2021/04/26 04:15:26;;;;;;;5.80;1.90;;;;;;;9.17;40.37;101893.50;5105856;28;20468;-47
2021/04/26 04:17:52;;;;;;;4.60;1.53;;;;;;;9.23;40.33;101888.75;5107604;28;20458;-50
2021/04/26 04:20:19;;;;;;;3.60;1.23;;;;;;;9.22;40.06;101886.97;5104298;28;20903;-55
2021/04/26 04:22:46;;;;;;;4.87;1.97;;;;;;;9.24;40.25;101882.81;5108302;28;20470;-49
2021/04/26 04:25:13;;;;;;;5.90;2.10;;;;;;;9.32;40.36;101893.59;5104349;28;20483;-48
2021/04/26 04:27:40;;;;;;;12.30;3.97;;;;;;;9.41;40.31;101878.75;5105594;28;20769;-49
2021/04/26 04:30:09;;;;;;;6.87;2.03;;;;;;;9.21;40.25;101869.72;5104931;28;20477;-47
2021/04/26 04:32:35;;;;;;;6.07;2.10;;;;;;;9.53;40.33;101872.63;5107108;28;20482;-47
2021/04/26 04:35:03;;;;;;;11.53;2.83;;;;;;;9.66;39.41;101874.28;5104556;28;20997;-46
2021/04/26 04:37:30;;;;;;;6.70;1.70;;;;;;;9.66;39.20;101875.19;5106538;28;20436;-48
2021/04/26 04:39:56;;;;;;;7.40;1.83;;;;;;;9.68;39.39;101875.25;5103505;28;20470;-46
2021/04/26 04:42:24;;;;;;;6.90;1.70;;;;;;;9.82;39.12;101870.97;5106589;28;20508;-48
2021/04/26 04:44:50;;;;;;;8.87;3.27;;;;;;;9.66;40.66;101864.88;5105483;28;20470;-51
2021/04/26 04:47:17;;;;;;;7.90;3.20;;;;;;;9.81;39.77;101872.69;5104761;28;20556;-48
2021/04/26 04:49:44;;;;;;;7.70;2.00;;;;;;;9.81;39.62;101870.09;5105058;28;20475;-49
2021/04/26 04:52:11;;;;;;;5.33;2.10;;;;;;;9.98;39.84;101865.09;5104240;28;20483;-49
2021/04/26 04:54:37;;;;;;;8.20;2.70;;;;;;;10.10;39.62;101858.09;5105970;28;20462;-47
2021/04/26 04:57:04;;;;;;;8.63;2.63;;;;;;;10.08;39.56;101859.72;5105363;28;20460;-46
2021/04/26 04:59:31;;;;;;;8.70;2.47;;;;;;;10.13;39.47;101857.41;5103922;28;20458;-47
2021/04/26 05:01:58;;;;;;;4.70;1.93;;;;;;;10.21;39.16;101860.47;5106546;28;20465;-49
2021/04/26 05:04:25;;;;;;;8.30;2.73;;;;;;;10.07;39.69;101865.66;5104616;28;20477;-48
2021/04/26 05:06:53;;;;;;;6.73;1.60;;;;;;;10.08;39.28;101862.28;5104951;28;20457;-46
2021/04/26 05:09:20;;;;;;;11.63;4.53;;;;;;;10.23;39.16;101861.44;5103570;28;20480;-49
2021/04/26 05:11:47;;;;;;;4.90;2.13;;;;;;;10.42;38.65;101859.97;5104038;28;20944;-51
2021/04/26 05:14:13;;;;;;;12.20;3.20;;;;;;;10.47;39.21;101859.47;5104872;28;20542;-47
2021/04/26 05:16:41;;;;;;;8.67;2.60;;;;;;;10.24;39.13;101858.06;5106631;28;20457;-47
2021/04/26 05:19:08;;;;;;;4.63;1.80;;;;;;;10.18;39.02;101858.59;5104537;28;20427;-46
2021/04/26 05:21:34;;;;;;;15.13;3.20;;;;;;;10.19;39.01;101856.88;5105894;28;20481;-49
2021/04/26 05:24:01;;;;;;;30.63;13.33;;;;;;;10.49;39.57;101860.47;5103747;28;20439;-46
2021/04/26 05:26:28;;;;;;;7.27;2.93;;;;;;;10.67;38.59;101868.41;5105268;28;20463;-49
2021/04/26 05:28:55;;;;;;;17.73;7.07;;;;;;;10.21;39.86;101865.63;5106282;28;20449;-51
2021/04/26 05:31:22;;;;;;;23.93;7.40;;;;;;;10.14;40.41;101866.91;5102004;28;20848;-47
2021/04/26 05:33:49;;;;;;;22.40;8.60;;;;;;;10.51;39.38;101865.72;5105590;28;20789;-49
2021/04/26 05:36:16;;;;;;;12.73;4.40;;;;;;;10.66;40.04;101866.63;5102878;28;20474;-51
2021/04/26 05:38:47;;;;;;;11.63;3.43;;;;;;;10.12;40.08;101864.25;5105137;28;20420;-47
2021/04/26 05:41:14;;;;;;;7.40;2.40;;;;;;;10.50;39.06;101863.94;5104688;28;20450;-48
2021/04/26 05:43:40;;;;;;;15.07;6.30;;;;;;;10.58;39.35;101869.56;5104200;28;20450;-52
2021/04/26 05:46:07;;;;;;;10.70;3.93;;;;;;;10.56;39.38;101868.59;5104535;28;20901;-50
2021/04/26 05:48:34;;;;;;;9.77;2.20;;;;;;;10.62;38.75;101872.41;5112787;28;20428;-49
2021/04/26 05:51:01;;;;;;;9.83;3.10;;;;;;;10.75;38.84;101865.38;5108949;28;20472;-47
2021/04/26 05:53:28;;;;;;;10.03;3.80;;;;;;;10.72;38.88;101870.38;5109223;28;20510;-49
2021/04/26 05:55:59;;;;;;;8.50;2.13;;;;;;;10.83;38.36;101866.75;5107125;28;20910;-51
2021/04/26 05:58:26;;;;;;;6.13;2.20;;;;;;;10.51;39.10;101865.72;5109668;28;20480;-47
2021/04/26 06:00:53;;;;;;;10.27;2.67;;;;;;;10.64;38.95;101867.34;5105942;28;20588;-48
2021/04/26 06:03:20;;;;;;;4.50;2.00;;;;;;;10.75;38.77;101865.38;5110245;28;20428;-51
2021/04/26 06:05:46;;;;;;;6.40;2.53;;;;;;;10.36;39.50;101870.81;5107854;28;20448;-47
2021/04/26 06:08:17;;;;;;;7.13;2.73;;;;;;;10.56;39.22;101864.28;5107964;28;20428;-50
2021/04/26 06:10:44;;;;;;;8.10;2.37;;;;;;;11.16;38.68;101866.00;5109082;28;20473;-48
2021/04/26 06:13:11;;;;;;;12.57;2.90;;;;;;;11.29;37.90;101865.88;5108240;28;21004;-49
2021/04/26 06:15:37;;;;;;;13.83;3.47;;;;;;;11.25;38.38;101868.22;5108921;28;20443;-50
2021/04/26 06:18:09;;;;;;;14.60;4.67;;;;;;;11.51;37.03;101861.94;5108207;28;20966;-49
2021/04/26 06:20:35;;;;;;;8.70;3.37;;;;;;;11.43;36.92;101861.50;5106047;28;20463;-47
2021/04/26 06:23:02;;;;;;;9.97;3.33;;;;;;;11.54;36.69;101856.06;5107802;28;20429;-49
2021/04/26 06:25:30;;;;;;;10.50;2.90;;;;;;;11.24;36.79;101861.28;5107297;28;20469;-49
2021/04/26 06:27:57;;;;;;;13.20;3.83;;;;;;;11.31;37.19;101864.31;5109879;28;20515;-51
2021/04/26 06:30:24;;;;;;;14.93;4.10;;;;;;;11.99;35.93;101854.19;5106727;28;20477;-51
2021/04/26 06:32:50;;;;;;;11.70;3.47;;;;;;;12.10;34.81;101856.50;5110079;28;20495;-47
2021/04/26 06:35:17;;;;;;;11.87;2.67;;;;;;;11.90;34.75;101856.28;5105713;28;20477;-50
2021/04/26 06:37:44;;;;;;;9.17;2.30;;;;;;;12.18;35.13;101860.38;5108820;28;20738;-49
2021/04/26 06:40:11;;;;;;;17.53;7.43;;;;;;;12.67;34.07;101855.97;5107462;28;20742;-49
2021/04/26 06:42:39;;;;;;;10.10;4.90;;;;;;;12.45;33.35;101856.56;5107007;28;20547;-51
2021/04/26 06:45:07;;;;;;;12.57;2.60;;;;;;;12.01;33.75;101849.97;5106921;28;20448;-48
2021/04/26 06:47:34;;;;;;;7.60;1.90;;;;;;;11.78;34.31;101858.22;5107539;28;20548;-50
2021/04/26 06:50:00;;;;;;;15.20;4.90;;;;;;;12.33;34.99;101857.69;5105869;28;20891;-51
2021/04/26 06:52:27;;;;;;;8.03;2.23;;;;;;;12.20;34.31;101860.47;5107005;28;20565;-47
2021/04/26 06:54:53;;;;;;;10.13;2.17;;;;;;;11.94;34.44;101858.22;5106333;28;20473;-49
2021/04/26 06:57:20;;;;;;;6.47;2.03;;;;;;;12.32;33.91;101850.75;5109317;28;20435;-51
2021/04/26 06:59:47;;;;;;;12.10;2.03;;;;;;;12.17;34.19;101847.34;5106161;28;20800;-48
2021/04/26 07:02:14;;;;;;;11.17;3.20;;;;;;;11.96;34.45;101841.09;5107160;28;20444;-49
2021/04/26 07:04:41;;;;;;;7.83;2.53;;;;;;;12.59;33.59;101841.72;5105960;28;20485;-49
2021/04/26 07:07:07;;;;;;;6.33;1.77;;;;;;;12.64;32.83;101845.44;5108085;28;20511;-50
2021/04/26 07:09:34;;;;;;;17.53;6.93;;;;;;;12.78;33.55;101841.81;5107362;28;20541;-48
2021/04/26 07:12:00;;;;;;;7.13;2.07;;;;;;;12.22;33.20;101832.97;5105849;28;20458;-48
2021/04/26 07:14:27;;;;;;;7.97;2.13;;;;;;;12.11;33.29;101835.84;5104106;28;20444;-47
2021/04/26 07:16:54;;;;;;;6.20;1.97;;;;;;;12.51;33.31;101829.28;5106050;28;20504;-49
2021/04/26 07:19:21;;;;;;;8.93;2.80;;;;;;;13.17;31.88;101830.78;5096437;28;20474;-50
2021/04/26 07:21:50;;;;;;;5.60;1.83;;;;;;;12.99;32.23;101820.41;5115458;28;20961;-47
2021/04/26 07:24:16;;;;;;;8.70;1.50;;;;;;;12.81;31.92;101826.47;5116695;28;20744;-48
2021/04/26 07:26:43;;;;;;;12.57;3.17;;;;;;;12.92;31.21;101819.22;5117982;28;20449;-48
2021/04/26 07:29:09;;;;;;;5.80;1.70;;;;;;;13.01;30.84;101818.78;5116848;28;20463;-49
2021/04/26 07:31:36;;;;;;;11.83;1.50;;;;;;;12.69;31.74;101825.84;5117207;28;20934;-46
2021/04/26 07:34:04;;;;;;;7.43;1.60;;;;;;;11.47;31.62;101816.94;5116492;28;20451;-46
2021/04/26 07:36:30;;;;;;;5.30;1.73;;;;;;;11.94;31.34;101816.84;5117864;28;20513;-46
2021/04/26 07:38:57;;;;;;;4.77;1.10;;;;;;;12.58;30.88;101817.53;5117905;28;20457;-48
2021/04/26 07:41:24;;;;;;;5.17;1.70;;;;;;;12.26;29.41;101821.97;5116113;28;20481;-49
2021/04/26 07:43:50;;;;;;;9.20;1.20;;;;;;;12.47;30.33;101824.78;5118026;28;20448;-50
2021/04/26 07:46:17;;;;;;;7.33;1.70;;;;;;;12.71;28.78;101825.94;5116294;28;20451;-51
2021/04/26 07:48:44;;;;;;;5.47;1.47;;;;;;;12.99;28.83;101824.69;5117582;28;20457;-50
2021/04/26 07:51:11;;;;;;;4.90;1.30;;;;;;;13.08;29.07;101819.97;5116199;28;20842;-50
2021/04/26 07:53:38;;;;;;;6.23;1.50;;;;;;;13.12;28.43;101813.25;5117770;28;20543;-49
2021/04/26 07:56:05;;;;;;;4.80;1.03;;;;;;;12.90;29.03;101812.19;5115959;28;20500;-48
2021/04/26 07:58:32;;;;;;;4.50;1.00;;;;;;;13.17;28.65;101822.13;5117515;28;20453;-49
2021/04/26 08:00:58;;;;;;;3.40;1.03;;;;;;;13.10;28.37;101806.28;5115506;28;20480;-52
2021/04/26 08:03:25;;;;;;;4.30;1.27;;;;;;;13.36;28.29;101813.50;5117315;28;20472;-52
2021/04/26 08:05:53;;;;;;;4.40;1.57;;;;;;;13.22;28.13;101808.56;5116269;28;20920;-53
2021/04/26 08:08:21;;;;;;;11.00;1.33;;;;;;;13.64;28.19;101807.03;5117353;28;20461;-53
2021/04/26 08:10:48;;;;;;;4.10;1.57;;;;;;;13.70;27.66;101802.13;5114862;28;20463;-53
2021/04/26 08:13:15;;;;;;;6.00;1.17;;;;;;;13.45;27.78;101800.09;5116975;28;20489;-52
2021/04/26 08:15:42;;;;;;;4.53;1.20;;;;;;;13.51;28.20;101797.81;5116051;28;20834;-54
2021/04/26 08:18:09;;;;;;;4.07;1.30;;;;;;;13.76;27.54;101796.34;5117158;28;20513;-52
2021/04/26 08:20:36;;;;;;;5.60;1.20;;;;;;;14.28;27.35;101802.06;5115778;28;20483;-55
2021/04/26 08:23:03;;;;;;;6.80;1.27;;;;;;;14.32;27.28;101794.47;5117134;28;20461;-56
2021/04/26 08:25:31;;;;;;;8.03;0.90;;;;;;;14.29;26.92;101796.03;5116018;28;20482;-52
2021/04/26 08:27:57;;;;;;;4.70;1.10;;;;;;;14.35;27.20;101783.31;5110866;28;20813;-54
2021/04/26 08:30:24;;;;;;;4.97;1.70;;;;;;;14.61;26.78;101783.53;5115365;28;20451;-54
2021/04/26 08:32:51;;;;;;;8.70;1.13;;;;;;;14.57;26.86;101779.91;5116476;28;20477;-51
2021/04/26 08:35:18;;;;;;;4.27;1.00;;;;;;;14.63;26.35;101784.50;5115527;28;20476;-57
2021/04/26 08:37:45;;;;;;;4.60;1.20;;;;;;;13.47;27.03;101782.94;5116472;28;20511;-52
2021/04/26 08:40:12;;;;;;;3.43;1.10;;;;;;;13.29;27.59;101778.66;5109658;28;20894;-55
2021/04/26 08:42:39;;;;;;;3.43;1.07;;;;;;;13.74;27.34;101785.03;5116477;28;20984;-54
2021/04/26 08:45:08;;;;;;;5.20;1.10;;;;;;;13.87;27.79;101784.75;5115503;28;20485;-54
2021/04/26 08:47:37;;;;;;;4.00;1.00;;;;;;;13.41;27.48;101780.03;5116585;28;20567;-55
2021/04/26 08:50:07;;;;;;;6.80;2.20;;;;;;;13.62;27.76;101775.88;5114801;28;20472;-56
2021/04/26 08:52:34;;;;;;;8.13;1.70;;;;;;;14.35;27.90;101774.66;5116460;28;20769;-55
2021/04/26 08:55:01;;;;;;;6.40;1.60;;;;;;;14.78;26.75;101773.00;5115312;28;20479;-53
2021/04/26 08:57:27;;;;;;;8.90;2.40;;;;;;;14.92;27.00;101777.03;5116004;28;20551;-55
2021/04/26 08:59:55;;;;;;;3.63;1.20;;;;;;;13.99;26.51;101767.94;5115282;28;20479;-52
2021/04/26 09:02:21;;;;;;;4.10;1.10;;;;;;;14.93;26.45;101768.41;5116267;28;20810;-53
2021/04/26 09:04:50;;;;;;;4.70;1.30;;;;;;;14.84;27.69;101768.94;5114995;28;20782;-55
2021/04/26 09:07:19;;;;;;;3.60;1.17;;;;;;;14.89;26.27;101761.31;5116098;28;20460;-57
2021/04/26 09:09:47;;;;;;;6.37;1.50;;;;;;;15.19;26.91;101760.78;5114450;28;20487;-54
2021/04/26 09:12:17;;;;;;;5.53;1.40;;;;;;;15.25;25.62;101760.09;5116325;28;20477;-54
2021/04/26 09:14:45;;;;;;;9.63;3.97;;;;;;;15.39;26.38;101761.50;5114606;28;20480;-55
2021/04/26 09:17:41;;;;;;;9.43;1.67;;;;;;;14.22;26.51;101763.75;5115612;28;20821;-50
2021/04/26 09:20:24;;;;;;;8.53;1.37;;;;;;;14.50;26.68;101751.94;5067546;28;20483;-54
2021/04/26 09:22:54;;;;;;;18.23;7.43;;;;;;;14.28;25.96;101755.34;5115822;28;20802;-55
2021/04/26 09:25:29;;;;;;;5.93;2.30;;;;;;;14.28;25.57;101750.16;5114784;28;20483;-52
2021/04/26 09:27:58;;;;;;;11.60;4.60;;;;;;;14.28;26.07;101742.34;5106765;28;20555;-52
2021/04/26 09:30:51;;;;;;;5.07;1.47;;;;;;;14.22;26.13;101750.78;5114189;28;20915;-52
2021/04/26 09:33:27;;;;;;;9.10;1.40;;;;;;;13.63;26.91;101743.03;5096033;28;20453;-55
2021/04/26 09:35:59;;;;;;;5.47;1.33;;;;;;;13.31;26.53;101737.22;5114818;28;20514;-51
2021/04/26 09:38:26;;;;;;;4.77;1.27;;;;;;;13.82;26.33;101739.56;5115783;28;20435;-54
2021/04/26 09:41:07;;;;;;;5.57;1.40;;;;;;;14.23;25.25;101736.09;5114118;28;20491;-52
2021/04/26 09:43:35;;;;;;;7.60;1.17;;;;;;;14.88;24.44;101740.47;5115876;28;20516;-52
2021/04/26 09:46:01;;;;;;;5.40;1.40;;;;;;;14.74;24.96;101737.28;5114261;28;20576;-53
2021/04/26 09:48:29;;;;;;;4.93;1.77;;;;;;;14.98;24.49;101733.09;5115938;28;20462;-51
2021/04/26 09:50:58;;;;;;;4.20;1.20;;;;;;;15.19;23.48;101734.78;5113879;28;20485;-51
2021/04/26 09:53:26;;;;;;;3.90;1.13;;;;;;;15.42;23.67;101729.53;5115535;28;20485;-51
2021/04/26 09:55:55;;;;;;;5.80;1.50;;;;;;;15.18;23.72;101727.78;5114109;28;20779;-50
2021/04/26 09:58:23;;;;;;;4.23;1.50;;;;;;;14.90;23.79;101724.13;5115769;28;20518;-54
2021/04/26 10:00:50;;;;;;;9.47;3.70;;;;;;;14.87;25.03;101718.78;5113426;28;20469;-51
2021/04/26 10:03:17;;;;;;;7.10;2.23;;;;;;;14.80;24.75;101719.38;5115679;28;20488;-55
2021/04/26 10:05:47;;;;;;;4.10;1.40;;;;;;;14.57;24.40;101717.59;5114121;28;20560;-50
2021/04/26 10:08:16;;;;;;;5.20;1.30;;;;;;;15.51;23.99;101716.91;5115454;28;20833;-54
2021/04/26 10:10:45;;;;;;;9.60;1.87;;;;;;;16.31;23.34;101717.94;5113890;28;20567;-53
2021/04/26 10:13:13;;;;;;;4.13;1.30;;;;;;;16.23;23.57;101713.28;5115338;28;20467;-55
2021/04/26 10:15:40;;;;;;;4.77;1.80;;;;;;;15.70;23.75;101714.97;5113885;28;20938;-54
2021/04/26 10:18:11;;;;;;;4.20;1.57;;;;;;;15.73;23.49;101707.25;5115495;28;20453;-50
2021/04/26 10:20:39;;;;;;;4.90;1.50;;;;;;;16.29;23.47;101703.97;5113165;28;20500;-51
2021/04/26 10:23:36;;;;;;;4.37;1.30;;;;;;;15.74;23.75;101706.41;5115549;28;20488;-54
2021/04/26 10:26:09;;;;;;;5.17;1.73;;;;;;;15.91;23.38;101703.53;5114085;28;20480;-52
2021/04/26 10:28:37;;;;;;;5.93;1.73;;;;;;;16.35;23.32;101702.41;5115352;28;20459;-54
2021/04/26 10:31:09;;;;;;;5.73;1.50;;;;;;;16.64;22.87;101694.66;5113457;28;20477;-52
2021/04/26 10:34:06;;;;;;;4.30;1.30;;;;;;;14.87;23.92;101700.59;5116282;28;20485;-50
2021/04/26 10:36:44;;;;;;;5.20;1.63;;;;;;;14.78;24.88;101698.56;5118379;28;20482;-52
2021/04/26 10:39:15;;;;;;;9.93;1.70;;;;;;;15.55;23.86;101698.78;5117554;28;20460;-53
2021/04/26 10:42:06;;;;;;;5.40;1.60;;;;;;;14.76;24.76;101696.72;5118255;28;20511;-53
2021/04/26 10:44:53;;;;;;;3.90;1.50;;;;;;;15.05;24.03;101691.75;5117746;28;20504;-52
2021/04/26 10:47:26;;;;;;;6.77;3.00;;;;;;;15.30;23.99;101685.78;5119005;28;20559;-54
2021/04/26 10:50:29;;;;;;;5.20;1.63;;;;;;;15.02;24.05;101684.72;5117094;28;20507;-52
2021/04/26 10:52:58;;;;;;;10.03;2.50;;;;;;;15.16;23.85;101677.47;5118787;28;20829;-53
2021/04/26 10:55:47;;;;;;;5.43;1.50;;;;;;;14.77;24.19;101675.97;5117267;28;20489;-52
2021/04/26 10:58:27;;;;;;;4.47;1.83;;;;;;;15.10;23.75;101672.03;5118627;28;20456;-51
2021/04/26 11:00:54;;;;;;;6.67;2.40;;;;;;;15.34;24.07;101676.38;5117007;28;20491;-51
2021/04/26 11:03:34;;;;;;;4.90;1.80;;;;;;;15.34;23.49;101664.25;5118561;28;20484;-54
2021/04/26 11:06:16;;;;;;;11.27;1.67;;;;;;;14.76;24.12;101660.34;5117058;28;20468;-53
2021/04/26 11:08:47;;;;;;;5.00;1.87;;;;;;;14.98;24.00;101659.47;5118085;28;20544;-54
2021/04/26 11:11:17;;;;;;;6.07;1.70;;;;;;;15.40;25.75;101653.19;5116499;28;20491;-54
2021/04/26 11:13:53;;;;;;;12.00;2.37;;;;;;;15.41;23.70;101652.38;5117777;28;20485;-50
2021/04/26 11:16:52;;;;;;;5.63;2.00;;;;;;;16.09;23.52;101645.16;5106748;28;20449;-50
2021/04/26 11:19:19;;;;;;;5.70;2.17;;;;;;;16.50;23.86;101645.59;5106633;28;20567;-55
2021/04/26 11:22:00;;;;;;;4.57;1.30;;;;;;;16.70;22.04;101632.31;5106138;28;20488;-54
2021/04/26 11:25:04;;;;;;;5.63;1.50;;;;;;;16.42;23.05;101629.72;5105069;28;20468;-52
2021/04/26 11:27:36;;;;;;;4.90;1.80;;;;;;;16.41;24.64;101633.16;5108273;28;20495;-54
2021/04/26 11:30:31;;;;;;;6.80;2.23;;;;;;;16.50;22.77;101624.75;5108178;28;20927;-56
2021/04/26 11:33:05;;;;;;;7.57;1.70;;;;;;;15.57;23.33;101617.38;5106985;28;20479;-52